createdAt,value
2019-01-17T00:01:48.668Z,16.33
2019-01-17T00:04:18.994Z,16.20
2019-01-17T00:06:51.935Z,14.27
2019-01-17T00:09:22.164Z,14.37
2019-01-17T00:11:52.470Z,14.00
2019-01-17T00:14:25.724Z,14.53
2019-01-17T00:16:56.032Z,13.93
2019-01-17T00:19:29.213Z,13.10
2019-01-17T00:21:59.522Z,14.50
2019-01-17T00:24:46.028Z,15.00
2019-01-17T00:27:31.341Z,15.30
2019-01-17T00:30:01.555Z,14.63
2019-01-17T00:32:34.536Z,17.77
2019-01-17T00:35:07.807Z,20.77
2019-01-17T00:37:49.769Z,21.67
2019-01-17T00:40:19.987Z,21.10
2019-01-17T00:42:56.470Z,19.90
2019-01-17T00:45:35.363Z,16.97
2019-01-17T00:48:22.199Z,14.77
2019-01-17T00:50:58.341Z,15.53
2019-01-17T00:53:31.434Z,16.70
2019-01-17T00:56:04.680Z,14.67
2019-01-17T00:58:47.213Z,14.57
2019-01-17T01:01:23.705Z,14.47
2019-01-17T01:04:00.094Z,15.13
2019-01-17T01:06:30.369Z,13.80
2019-01-17T01:09:03.339Z,13.57
2019-01-17T01:11:51.846Z,12.53
2019-01-17T01:14:22.130Z,12.37
2019-01-17T01:16:55.185Z,13.20
2019-01-17T01:19:34.101Z,12.40
2019-01-17T01:22:20.794Z,12.50
2019-01-17T01:25:10.612Z,11.53
2019-01-17T01:27:40.921Z,11.53
2019-01-17T01:30:16.505Z,11.37
2019-01-17T01:33:04.749Z,11.33
2019-01-17T01:35:41.023Z,10.10
2019-01-17T01:38:11.364Z,12.17
2019-01-17T01:40:47.645Z,10.87
2019-01-17T01:43:17.890Z,11.60
2019-01-17T01:46:13.526Z,10.90
2019-01-17T01:48:59.114Z,10.53
2019-01-17T01:51:32.049Z,11.73
2019-01-17T01:54:00.703Z,11.33
2019-01-17T01:56:29.269Z,12.00
2019-01-17T01:58:58.035Z,11.63
2019-01-17T02:01:26.679Z,11.43
2019-01-17T02:03:55.270Z,10.97
2019-01-17T02:06:23.847Z,10.07
2019-01-17T02:08:52.438Z,9.97
2019-01-17T02:11:21.147Z,10.90
2019-01-17T02:13:50.386Z,10.70
2019-01-17T02:16:19.094Z,9.97
2019-01-17T02:18:47.782Z,10.53
2019-01-17T02:21:16.495Z,10.27
2019-01-17T02:23:45.198Z,10.30
2019-01-17T02:26:13.885Z,10.20
2019-01-17T02:28:42.453Z,9.73
2019-01-17T02:31:11.191Z,10.33
2019-01-17T02:33:39.854Z,10.33
2019-01-17T02:36:08.573Z,10.37
2019-01-17T02:38:37.155Z,10.93
2019-01-17T02:41:05.829Z,11.97
2019-01-17T02:43:34.396Z,10.97
2019-01-17T02:46:03.126Z,11.43
2019-01-17T02:48:31.770Z,10.33
2019-01-17T02:51:00.359Z,10.77
2019-01-17T02:53:29.065Z,10.07
2019-01-17T02:55:57.656Z,11.10
2019-01-17T02:58:26.237Z,10.33
2019-01-17T03:00:54.966Z,11.43
2019-01-17T03:03:23.611Z,11.03
2019-01-17T03:05:52.205Z,11.40
2019-01-17T03:08:20.785Z,10.93
2019-01-17T03:10:49.513Z,9.10
2019-01-17T03:13:18.214Z,10.63
2019-01-17T03:15:46.937Z,11.33
2019-01-17T03:18:15.677Z,11.20
2019-01-17T03:20:44.258Z,10.57
2019-01-17T03:23:12.829Z,10.87
2019-01-17T03:25:42.292Z,11.17
2019-01-17T03:28:11.009Z,9.80
2019-01-17T03:30:39.630Z,9.50
2019-01-17T03:33:08.380Z,9.40
2019-01-17T03:35:37.015Z,9.63
2019-01-17T03:38:05.819Z,10.60
2019-01-17T03:40:34.459Z,9.57
2019-01-17T03:43:03.122Z,9.47
2019-01-17T03:45:31.691Z,9.20
2019-01-17T03:48:00.289Z,9.47
2019-01-17T03:50:28.845Z,9.63
2019-01-17T03:52:57.573Z,9.03
2019-01-17T03:55:26.859Z,8.17
2019-01-17T03:57:55.459Z,6.43
2019-01-17T04:00:24.159Z,8.10
2019-01-17T04:02:52.873Z,7.40
2019-01-17T04:05:21.439Z,7.87
2019-01-17T04:07:50.018Z,7.63
2019-01-17T04:10:18.647Z,7.80
2019-01-17T04:12:47.384Z,7.47
2019-01-17T04:15:16.145Z,7.57
2019-01-17T04:17:44.868Z,7.90
2019-01-17T04:20:15.081Z,7.50
2019-01-17T04:22:43.817Z,7.87
2019-01-17T04:25:12.618Z,5.57
2019-01-17T04:27:41.538Z,5.13
2019-01-17T04:30:15.854Z,7.77
2019-01-17T04:32:44.483Z,8.77
2019-01-17T04:35:13.183Z,8.03
2019-01-17T04:37:41.811Z,8.40
2019-01-17T04:40:12.838Z,7.07
2019-01-17T04:42:41.492Z,7.23
2019-01-17T04:45:12.332Z,8.30
2019-01-17T04:47:40.958Z,9.80
2019-01-17T04:50:12.093Z,10.03
2019-01-17T04:52:41.098Z,8.97
2019-01-17T04:55:11.438Z,7.57
2019-01-17T04:57:42.911Z,6.93
2019-01-17T05:00:30.901Z,7.70
2019-01-17T05:02:59.542Z,7.40
2019-01-17T05:05:28.140Z,7.93
2019-01-17T05:07:56.700Z,9.13
2019-01-17T05:10:25.279Z,8.57
2019-01-17T05:12:53.847Z,8.50
2019-01-17T05:15:22.575Z,12.90
2019-01-17T05:17:51.981Z,12.93
2019-01-17T05:20:20.635Z,11.73
2019-01-17T05:22:49.269Z,19.60
2019-01-17T05:25:17.868Z,20.27
2019-01-17T05:27:46.437Z,15.03
2019-01-17T05:30:17.366Z,13.10
2019-01-17T05:32:46.167Z,12.80
2019-01-17T05:35:15.001Z,11.23
2019-01-17T05:37:43.803Z,9.13
2019-01-17T05:40:19.854Z,9.87
2019-01-17T05:43:00.156Z,13.37
2019-01-17T05:45:28.810Z,17.40
2019-01-17T05:47:57.376Z,22.33
2019-01-17T05:50:25.960Z,12.53
2019-01-17T05:52:54.598Z,10.13
2019-01-17T05:55:23.281Z,9.43
2019-01-17T05:57:51.838Z,8.97
2019-01-17T06:00:21.265Z,8.73
2019-01-17T06:02:49.961Z,8.53
2019-01-17T06:05:19.165Z,8.53
2019-01-17T06:07:47.902Z,8.40
2019-01-17T06:10:16.541Z,8.10
2019-01-17T06:12:45.198Z,8.90
2019-01-17T06:15:16.241Z,8.50
2019-01-17T06:17:44.833Z,8.90
2019-01-17T06:20:16.034Z,9.10
2019-01-17T06:22:44.693Z,9.57
2019-01-17T06:25:13.585Z,10.40
2019-01-17T06:27:42.233Z,8.33
2019-01-17T06:30:13.641Z,8.67
2019-01-17T06:32:42.375Z,8.67
2019-01-17T06:35:11.784Z,9.13
2019-01-17T06:37:40.508Z,11.27
2019-01-17T06:40:20.924Z,12.73
2019-01-17T06:42:49.724Z,14.00
2019-01-17T06:45:18.532Z,14.50
2019-01-17T06:47:47.275Z,13.27
2019-01-17T06:50:15.829Z,12.77
2019-01-17T06:52:44.502Z,12.20
2019-01-17T06:55:13.310Z,16.63
2019-01-17T06:57:41.980Z,21.60
2019-01-17T07:00:15.695Z,15.53
2019-01-17T07:02:44.421Z,14.53
2019-01-17T07:05:14.614Z,16.00
2019-01-17T07:07:43.359Z,17.10
2019-01-17T07:10:17.191Z,12.70
2019-01-17T07:12:46.205Z,13.37
2019-01-17T07:15:15.066Z,13.20
2019-01-17T07:17:43.755Z,10.40
2019-01-17T07:20:14.639Z,10.70
2019-01-17T07:22:43.757Z,11.90
2019-01-17T07:25:12.771Z,13.50
2019-01-17T07:27:41.431Z,12.23
2019-01-17T07:30:21.310Z,12.03
2019-01-17T07:32:50.028Z,12.93
2019-01-17T07:35:18.840Z,12.13
2019-01-17T07:37:47.571Z,13.60
2019-01-17T07:40:16.477Z,13.50
2019-01-17T07:42:45.142Z,14.37
2019-01-17T07:45:22.792Z,13.50
2019-01-17T07:47:51.458Z,12.97
2019-01-17T07:50:20.169Z,13.20
2019-01-17T07:52:48.793Z,11.70
2019-01-17T07:55:17.532Z,12.83
2019-01-17T07:57:46.230Z,14.20
2019-01-17T08:00:17.569Z,15.20
2019-01-17T08:02:46.274Z,12.80
2019-01-17T08:05:14.942Z,12.63
2019-01-17T08:07:43.641Z,11.63
2019-01-17T08:10:15.074Z,13.80
2019-01-17T08:12:43.762Z,13.00
2019-01-17T08:15:13.999Z,13.03
2019-01-17T08:17:42.699Z,12.43
2019-01-17T08:20:17.043Z,13.43
2019-01-17T08:22:45.896Z,13.00
2019-01-17T08:25:14.804Z,14.03
2019-01-17T08:27:44.489Z,13.53
2019-01-17T08:30:15.844Z,12.87
2019-01-17T08:32:44.543Z,11.37
2019-01-17T08:35:14.566Z,11.63
2019-01-17T08:37:43.197Z,12.40
2019-01-17T08:40:20.251Z,11.20
2019-01-17T08:42:45.251Z,13.00
2019-01-17T08:45:14.082Z,12.40
2019-01-17T08:47:42.708Z,14.17
2019-01-17T08:50:14.301Z,12.50
2019-01-17T08:52:43.101Z,11.53
2019-01-17T08:55:11.823Z,12.50
2019-01-17T08:57:40.461Z,10.20
2019-01-17T09:00:23.155Z,10.47
2019-01-17T09:02:52.086Z,12.60
2019-01-17T09:05:20.742Z,11.20
2019-01-17T09:07:49.370Z,14.27
2019-01-17T09:10:26.613Z,13.30
2019-01-17T09:12:55.318Z,14.10
2019-01-17T09:15:26.985Z,11.13
2019-01-17T09:17:55.677Z,9.30
2019-01-17T09:20:24.329Z,8.23
2019-01-17T09:22:52.958Z,7.37
2019-01-17T09:25:21.680Z,8.03
2019-01-17T09:27:50.241Z,8.20
2019-01-17T09:30:20.645Z,7.20
2019-01-17T09:32:49.437Z,7.27
2019-01-17T09:35:18.661Z,7.47
2019-01-17T09:37:47.356Z,7.10
2019-01-17T09:40:21.255Z,7.00
2019-01-17T09:42:49.941Z,6.30
2019-01-17T09:45:19.260Z,7.17
2019-01-17T09:47:47.962Z,6.67
2019-01-17T09:50:21.990Z,8.43
2019-01-17T09:52:51.772Z,9.43
2019-01-17T09:55:20.489Z,10.13
2019-01-17T09:57:49.189Z,9.23
2019-01-17T10:00:26.366Z,7.87
2019-01-17T10:02:55.058Z,10.50
2019-01-17T10:05:23.709Z,11.50
2019-01-17T10:07:52.398Z,6.73
2019-01-17T10:10:23.981Z,8.33
2019-01-17T10:12:52.739Z,7.83
2019-01-17T10:15:27.070Z,8.57
2019-01-17T10:18:31.942Z,9.20
2019-01-17T10:21:30.748Z,5.67
2019-01-17T10:24:25.114Z,6.00
2019-01-17T10:27:11.456Z,9.50
2019-01-17T10:30:00.928Z,6.57
2019-01-17T10:32:41.286Z,6.97
2019-01-17T10:35:30.821Z,6.63
2019-01-17T10:38:11.069Z,7.43
2019-01-17T10:40:42.703Z,7.00
2019-01-17T10:43:38.799Z,5.80
2019-01-17T10:46:37.794Z,6.97
2019-01-17T10:49:12.246Z,6.87
2019-01-17T10:51:43.901Z,7.63
2019-01-17T10:54:27.491Z,7.87
2019-01-17T10:57:16.940Z,7.67
2019-01-17T11:00:00.536Z,7.53
2019-01-17T11:02:41.133Z,8.20
2019-01-17T11:05:32.742Z,7.37
2019-01-17T11:08:13.262Z,7.63
2019-01-17T11:10:50.493Z,7.83
2019-01-17T11:13:40.005Z,8.60
2019-01-17T11:16:20.363Z,7.87
2019-01-17T11:19:06.986Z,10.73
2019-01-17T11:21:54.941Z,16.07
2019-01-17T11:24:38.404Z,8.90
2019-01-17T11:27:28.353Z,14.43
2019-01-17T11:30:02.616Z,10.97
2019-01-17T11:33:03.259Z,11.03
2019-01-17T11:35:43.689Z,9.67
2019-01-17T11:38:34.339Z,9.93
2019-01-17T11:41:14.760Z,7.80
2019-01-17T11:43:52.121Z,7.67
2019-01-17T11:46:26.765Z,8.80
2019-01-17T11:49:15.442Z,7.13
2019-01-17T11:52:04.624Z,12.23
2019-01-17T11:54:42.059Z,8.07
2019-01-17T11:57:16.287Z,10.57
2019-01-17T11:59:47.953Z,9.97
2019-01-17T12:02:25.450Z,7.97
2019-01-17T12:04:52.969Z,7.90
2019-01-17T12:07:21.652Z,6.93
2019-01-17T12:09:50.307Z,8.17
2019-01-17T12:12:20.441Z,9.70
2019-01-17T12:14:49.299Z,7.67
2019-01-17T12:17:17.929Z,8.27
2019-01-17T12:19:46.660Z,8.73
2019-01-17T12:22:15.285Z,8.03
2019-01-17T12:24:44.963Z,7.00
2019-01-17T12:27:13.655Z,9.27
2019-01-17T12:29:42.336Z,8.53
2019-01-17T12:32:11.024Z,9.17
2019-01-17T12:34:39.767Z,7.33
2019-01-17T12:37:08.388Z,7.93
2019-01-17T12:39:37.124Z,6.03
2019-01-17T12:42:06.005Z,8.57
2019-01-17T12:44:34.755Z,7.57
2019-01-17T12:47:03.457Z,6.17
2019-01-17T12:49:32.129Z,8.23
2019-01-17T12:52:00.674Z,7.87
2019-01-17T12:54:29.346Z,7.57
2019-01-17T12:56:57.989Z,7.33
2019-01-17T12:59:26.596Z,6.87
2019-01-17T13:01:55.227Z,6.23
2019-01-17T13:04:24.043Z,6.93
2019-01-17T13:06:52.711Z,6.73
2019-01-17T13:09:21.354Z,6.47
2019-01-17T13:11:50.009Z,5.40
2019-01-17T13:14:18.588Z,6.63
2019-01-17T13:16:47.175Z,5.47
2019-01-17T13:19:15.883Z,5.80
2019-01-17T13:21:44.607Z,5.47
2019-01-17T13:24:14.657Z,6.23
2019-01-17T13:26:43.816Z,4.80
2019-01-17T13:29:12.505Z,5.33
2019-01-17T13:31:41.227Z,5.50
2019-01-17T13:34:10.958Z,6.57
2019-01-17T13:36:40.496Z,5.70
2019-01-17T13:39:09.437Z,5.40
2019-01-17T13:41:38.072Z,7.30
2019-01-17T13:44:06.590Z,4.60
2019-01-17T13:46:35.309Z,7.33
2019-01-17T13:49:04.039Z,5.60
2019-01-17T14:42:08.198Z,7.23
2019-01-17T14:50:37.546Z,16.87
2019-01-17T14:57:07.747Z,3.97
2019-01-17T15:57:11.415Z,5.03
2019-01-17T15:59:35.823Z,4.13
2019-01-17T16:02:04.695Z,4.90
2019-01-17T16:04:33.383Z,5.70
2019-01-17T16:07:02.262Z,13.40
2019-01-17T16:09:31.014Z,30.90
2019-01-17T16:11:59.825Z,4.07
2019-01-17T16:14:29.147Z,4.57
2019-01-17T16:16:57.936Z,5.20
2019-01-17T16:19:26.486Z,4.67
2019-01-17T16:21:55.272Z,4.53
2019-01-17T16:24:23.867Z,5.10
2019-01-17T16:26:52.707Z,5.53
2019-01-17T16:29:21.381Z,7.03
2019-01-17T16:31:49.961Z,4.90
2019-01-17T16:34:18.586Z,4.93
2019-01-17T16:36:47.273Z,3.87
2019-01-17T16:39:15.800Z,3.83
2019-01-17T16:41:44.449Z,4.77
2019-01-17T16:44:13.159Z,5.57
2019-01-17T16:46:41.747Z,4.20
2019-01-17T16:49:10.297Z,5.60
2019-01-17T16:51:38.861Z,5.80
2019-01-17T16:54:07.445Z,4.20
2019-01-17T16:56:35.998Z,5.53
2019-01-17T16:59:04.722Z,4.77
2019-01-17T17:01:33.348Z,4.87
2019-01-17T17:04:01.925Z,5.10
2019-01-17T17:06:30.552Z,5.50
2019-01-17T17:08:59.138Z,5.63
2019-01-17T17:11:27.686Z,5.30
2019-01-17T17:13:56.266Z,4.97
2019-01-17T17:16:24.881Z,5.00
2019-01-17T17:18:53.461Z,5.63
2019-01-17T17:21:22.057Z,4.60
2019-01-17T17:23:50.602Z,4.87
2019-01-17T17:26:19.221Z,5.07
2019-01-17T17:28:47.880Z,4.67
2019-01-17T17:31:16.490Z,5.37
2019-01-17T17:33:45.145Z,5.03
2019-01-17T17:36:13.705Z,6.03
2019-01-17T17:38:42.290Z,5.90
2019-01-17T17:41:10.920Z,5.87
2019-01-17T17:43:39.568Z,6.03
2019-01-17T17:46:08.117Z,5.53
2019-01-17T17:48:36.710Z,6.57
2019-01-17T17:51:05.333Z,5.47
2019-01-17T17:53:33.917Z,6.40
2019-01-17T17:56:02.479Z,5.80
2019-01-17T17:58:31.067Z,5.50
2019-01-17T18:01:01.320Z,5.53
2019-01-17T18:03:29.910Z,5.80
2019-01-17T18:05:58.465Z,5.17
2019-01-17T18:08:27.114Z,4.90
2019-01-17T18:10:55.743Z,5.87
2019-01-17T18:13:24.313Z,5.17
2019-01-17T18:15:52.937Z,4.77
2019-01-17T18:18:21.586Z,5.30
2019-01-17T18:20:50.147Z,4.50
2019-01-17T18:23:18.761Z,5.07
2019-01-17T18:25:47.342Z,5.07
2019-01-17T18:28:15.894Z,5.53
2019-01-17T18:30:44.470Z,4.53
2019-01-17T18:33:13.094Z,5.90
2019-01-17T18:35:41.761Z,4.43
2019-01-17T18:38:10.293Z,4.63
2019-01-17T18:40:39.133Z,4.70
2019-01-17T18:43:07.814Z,4.07
2019-01-17T18:45:36.473Z,4.23
2019-01-17T18:48:05.169Z,4.20
2019-01-17T18:50:35.194Z,4.50
2019-01-17T18:53:04.217Z,4.57
2019-01-17T18:55:32.853Z,4.30
2019-01-17T18:58:01.490Z,4.63
2019-01-17T19:00:31.918Z,5.13
2019-01-17T19:03:00.619Z,4.73
2019-01-17T19:05:30.015Z,4.80
2019-01-17T19:07:58.657Z,4.70
2019-01-17T19:10:27.395Z,4.50
2019-01-17T19:12:56.094Z,4.80
2019-01-17T19:15:30.011Z,4.60
2019-01-17T19:17:58.642Z,4.30
2019-01-17T19:20:27.433Z,5.20
2019-01-17T19:22:56.141Z,4.70
2019-01-17T19:25:24.721Z,4.13
2019-01-17T19:27:53.278Z,4.73
2019-01-17T19:30:27.121Z,4.33
2019-01-17T19:32:55.998Z,3.63
2019-01-17T19:35:24.652Z,4.23
2019-01-17T19:37:53.304Z,5.17
2019-01-17T19:40:27.325Z,4.77
2019-01-17T19:42:55.945Z,4.10
2019-01-17T19:45:24.597Z,5.40
2019-01-17T19:47:53.531Z,10.23
2019-01-17T19:50:45.898Z,4.80
2019-01-17T19:53:14.521Z,5.43
2019-01-17T19:55:43.178Z,6.43
2019-01-17T19:58:11.797Z,4.40
2019-01-17T20:00:40.514Z,6.77
2019-01-17T20:03:09.216Z,5.37
2019-01-17T20:05:38.097Z,6.10
2019-01-17T20:08:06.732Z,6.43
2019-01-17T20:10:35.758Z,4.43
2019-01-17T20:13:05.021Z,5.53
2019-01-17T20:15:33.656Z,5.87
2019-01-17T20:18:02.276Z,6.40
2019-01-17T20:20:32.003Z,5.90
2019-01-17T20:23:01.267Z,5.83
2019-01-17T20:25:29.930Z,5.87
2019-01-17T20:27:59.056Z,5.47
2019-01-17T20:30:30.081Z,5.63
2019-01-17T20:33:00.313Z,5.57
2019-01-17T20:35:29.036Z,5.43
2019-01-17T20:37:57.763Z,5.10
2019-01-17T20:40:26.486Z,6.57
2019-01-17T20:42:55.179Z,6.97
2019-01-17T20:45:24.233Z,5.57
2019-01-17T20:47:52.849Z,5.53
2019-01-17T20:50:26.995Z,5.07
2019-01-17T20:52:55.558Z,4.80
2019-01-17T20:55:24.130Z,5.10
2019-01-17T20:57:52.757Z,5.40
2019-01-17T21:00:39.501Z,4.63
2019-01-17T21:03:09.999Z,3.60
2019-01-17T21:05:38.665Z,4.70
2019-01-17T21:08:07.458Z,3.90
2019-01-17T21:10:36.118Z,4.13
2019-01-17T21:13:04.917Z,4.20
2019-01-17T21:15:33.589Z,4.40
2019-01-17T21:18:02.145Z,4.20
2019-01-17T21:20:30.700Z,4.10
2019-01-17T21:22:59.422Z,4.00
2019-01-17T21:25:28.057Z,4.27
2019-01-17T21:27:56.633Z,4.50
2019-01-17T21:30:26.530Z,4.57
2019-01-17T21:32:55.126Z,4.17
2019-01-17T21:35:23.821Z,3.90
2019-01-17T21:37:52.473Z,4.80
2019-01-17T21:40:22.577Z,4.23
2019-01-17T21:42:51.225Z,4.20
2019-01-17T21:45:19.928Z,4.67
2019-01-17T21:47:48.576Z,4.23
2019-01-17T21:50:28.817Z,4.97
2019-01-17T21:52:57.437Z,4.20
2019-01-17T21:55:26.197Z,4.03
2019-01-17T21:57:54.790Z,5.37
2019-01-17T22:00:30.051Z,5.37
2019-01-17T22:02:58.779Z,4.63
2019-01-17T22:05:27.466Z,5.33
2019-01-17T22:07:56.190Z,5.40
2019-01-17T22:10:44.085Z,5.20
2019-01-17T22:13:12.738Z,5.20
2019-01-17T22:15:41.431Z,5.77
2019-01-17T22:18:10.082Z,3.27
2019-01-17T22:20:38.672Z,6.00
2019-01-17T22:23:07.334Z,5.43
2019-01-17T22:25:35.885Z,6.27
2019-01-17T22:28:04.672Z,5.87
2019-01-17T22:30:33.360Z,4.67
2019-01-17T22:33:02.013Z,5.03
2019-01-17T22:35:30.636Z,4.87
2019-01-17T22:37:59.220Z,5.10
2019-01-17T22:40:27.848Z,4.83
2019-01-17T22:42:56.437Z,4.70
2019-01-17T22:45:28.065Z,5.87
2019-01-17T22:47:56.786Z,4.80
2019-01-17T22:50:25.484Z,5.70
2019-01-17T22:52:54.173Z,5.20
2019-01-17T22:55:22.820Z,4.90
2019-01-17T22:57:51.369Z,5.37
2019-01-17T23:00:26.473Z,4.70
2019-01-17T23:02:55.037Z,5.67
2019-01-17T23:05:23.617Z,6.40
2019-01-17T23:07:52.245Z,6.13
2019-01-17T23:10:20.901Z,5.33
2019-01-17T23:12:49.457Z,6.53
2019-01-17T23:15:18.122Z,5.03
2019-01-17T23:17:46.856Z,5.87
2019-01-17T23:20:15.533Z,6.10
2019-01-17T23:22:44.099Z,6.13
2019-01-17T23:25:12.681Z,6.00
2019-01-17T23:27:41.235Z,5.07
2019-01-17T23:30:12.761Z,6.20
2019-01-17T23:32:41.326Z,5.33
2019-01-17T23:35:10.146Z,6.03
2019-01-17T23:37:38.843Z,6.13
2019-01-17T23:40:09.861Z,4.87
2019-01-17T23:42:38.417Z,6.13
2019-01-17T23:45:08.642Z,6.60
2019-01-17T23:47:37.202Z,6.50
2019-01-17T23:50:11.241Z,5.07
2019-01-17T23:52:39.937Z,6.50
2019-01-17T23:55:09.565Z,7.47
2019-01-17T23:57:38.190Z,6.70
